createdAt,value
2018-03-29T00:00:43.345Z,73.90
2018-03-29T00:03:10.905Z,69.90
2018-03-29T00:05:38.589Z,73.00
2018-03-29T00:08:06.606Z,74.17
2018-03-29T00:10:34.481Z,77.47
2018-03-29T00:13:02.052Z,73.30
2018-03-29T00:15:29.630Z,78.80
2018-03-29T00:17:57.185Z,73.40
2018-03-29T00:20:24.731Z,77.30
2018-03-29T00:22:52.662Z,88.93
2018-03-29T00:25:20.303Z,80.43
2018-03-29T00:27:47.999Z,80.90
2018-03-29T00:30:15.576Z,81.70
2018-03-29T00:32:43.460Z,75.83
2018-03-29T00:35:11.035Z,84.10
2018-03-29T00:37:38.606Z,81.77
2018-03-29T00:40:06.156Z,85.37
2018-03-29T00:42:33.725Z,77.00
2018-03-29T00:45:01.319Z,80.40
2018-03-29T00:47:29.228Z,81.27
2018-03-29T00:49:57.420Z,90.40
2018-03-29T00:52:24.996Z,87.87
2018-03-29T00:54:52.549Z,73.73
2018-03-29T00:57:20.159Z,82.50
2018-03-29T00:59:48.059Z,69.53
2018-03-29T01:02:15.617Z,70.40
2018-03-29T01:04:43.185Z,66.73
2018-03-29T01:07:11.067Z,78.87
2018-03-29T01:09:38.633Z,79.00
2018-03-29T01:12:06.184Z,81.07
2018-03-29T01:14:33.752Z,88.30
2018-03-29T01:17:01.303Z,67.20
2018-03-29T01:19:29.160Z,71.57
2018-03-29T01:21:56.745Z,75.10
2018-03-29T01:24:24.297Z,68.43
2018-03-29T01:26:51.856Z,66.67
2018-03-29T01:29:19.432Z,68.33
2018-03-29T01:31:47.267Z,73.50
2018-03-29T01:34:14.812Z,63.27
2018-03-29T01:36:42.419Z,68.90
2018-03-29T01:39:09.972Z,66.93
2018-03-29T01:41:37.521Z,74.10
2018-03-29T01:44:05.110Z,74.67
2018-03-29T01:46:33.225Z,71.47
2018-03-29T01:49:01.398Z,72.53
2018-03-29T01:51:29.038Z,68.63
2018-03-29T01:53:56.596Z,75.17
2018-03-29T01:56:24.225Z,71.20
2018-03-29T01:58:51.823Z,74.20
2018-03-29T02:01:19.408Z,79.27
2018-03-29T02:03:46.950Z,71.53
2018-03-29T02:06:14.526Z,85.10
2018-03-29T02:08:42.814Z,79.33
2018-03-29T02:11:10.438Z,87.63
2018-03-29T02:13:38.035Z,80.97
2018-03-29T02:16:05.926Z,90.53
2018-03-29T02:18:33.486Z,73.60
2018-03-29T02:21:01.150Z,83.80
2018-03-29T02:23:28.709Z,87.93
2018-03-29T02:25:56.261Z,94.97
2018-03-29T02:28:23.843Z,97.50
2018-03-29T02:30:51.398Z,92.00
2018-03-29T02:33:18.977Z,94.90
2018-03-29T02:35:47.217Z,92.17
2018-03-29T02:38:14.795Z,107.30
2018-03-29T02:40:42.455Z,100.93
2018-03-29T02:43:10.047Z,114.03
2018-03-29T02:45:37.602Z,108.97
2018-03-29T02:48:05.189Z,107.77
2018-03-29T02:50:32.798Z,102.57
2018-03-29T02:53:00.379Z,105.57
2018-03-29T02:55:27.982Z,109.00
2018-03-29T02:57:55.563Z,111.37
2018-03-29T03:00:23.125Z,106.30
2018-03-29T03:02:50.696Z,122.83
2018-03-29T03:05:18.328Z,109.97
2018-03-29T03:07:46.136Z,107.23
2018-03-29T03:10:14.206Z,101.83
2018-03-29T03:12:42.070Z,104.80
2018-03-29T03:15:09.635Z,111.83
2018-03-29T03:17:37.489Z,111.90
2018-03-29T03:20:05.112Z,111.17
2018-03-29T03:22:33.123Z,120.80
2018-03-29T03:25:00.667Z,112.10
2018-03-29T03:27:28.572Z,104.20
2018-03-29T03:29:56.143Z,91.00
2018-03-29T03:32:23.719Z,91.33
2018-03-29T03:34:51.307Z,69.97
2018-03-29T03:37:18.850Z,71.67
2018-03-29T03:39:46.409Z,73.83
2018-03-29T03:42:13.997Z,59.57
2018-03-29T03:44:41.594Z,58.77
2018-03-29T03:47:09.178Z,59.43
2018-03-29T03:49:36.777Z,47.60
2018-03-29T03:52:04.332Z,48.33
2018-03-29T03:54:31.893Z,47.57
2018-03-29T03:56:59.469Z,41.57
2018-03-29T03:59:27.101Z,41.80
2018-03-29T04:01:55.180Z,39.70
2018-03-29T04:04:22.991Z,39.37
2018-03-29T04:06:50.858Z,36.90
2018-03-29T04:09:18.408Z,34.90
2018-03-29T04:11:45.978Z,30.37
2018-03-29T04:14:13.563Z,26.90
2018-03-29T04:16:41.143Z,27.27
2018-03-29T04:19:08.735Z,27.03
2018-03-29T04:21:36.310Z,23.90
2018-03-29T04:24:03.857Z,25.23
2018-03-29T04:26:31.753Z,23.63
2018-03-29T04:28:59.623Z,25.57
2018-03-29T04:31:27.238Z,25.07
2018-03-29T04:33:54.859Z,23.83
2018-03-29T04:36:22.461Z,24.30
2018-03-29T04:38:50.273Z,22.10
2018-03-29T04:41:18.760Z,22.93
2018-03-29T04:43:46.344Z,25.90
2018-03-29T04:46:13.910Z,22.93
2018-03-29T04:48:41.527Z,25.03
2018-03-29T04:51:09.083Z,23.57
2018-03-29T04:53:36.646Z,22.43
2018-03-29T04:56:04.251Z,24.60
2018-03-29T04:58:31.811Z,22.87
2018-03-29T05:00:59.368Z,23.00
2018-03-29T05:03:26.950Z,31.27
2018-03-29T05:05:54.524Z,22.50
2018-03-29T05:08:22.334Z,19.23
2018-03-29T05:10:49.957Z,21.93
2018-03-29T05:13:17.530Z,21.63
2018-03-29T05:15:45.325Z,23.10
2018-03-29T05:18:12.903Z,24.87
2018-03-29T05:20:40.567Z,24.20
2018-03-29T05:23:08.144Z,22.90
2018-03-29T05:25:35.740Z,19.97
2018-03-29T05:28:09.951Z,17.90
2018-03-29T05:30:37.532Z,18.17
2018-03-29T05:33:05.138Z,15.30
2018-03-29T05:35:32.711Z,14.33
2018-03-29T05:38:00.303Z,15.20
2018-03-29T05:40:28.495Z,15.37
2018-03-29T05:42:56.067Z,17.43
2018-03-29T05:45:23.655Z,15.80
2018-03-29T05:47:51.280Z,16.37
2018-03-29T05:50:18.828Z,16.63
2018-03-29T05:52:46.830Z,15.50
2018-03-29T05:55:14.440Z,16.10
2018-03-29T05:57:42.071Z,16.80
2018-03-29T06:00:09.654Z,15.10
2018-03-29T06:02:37.215Z,15.13
2018-03-29T06:05:05.049Z,15.17
2018-03-29T06:07:32.617Z,14.57
2018-03-29T06:10:00.174Z,17.23
2018-03-29T06:12:27.808Z,14.07
2018-03-29T06:14:55.720Z,13.20
2018-03-29T06:17:26.190Z,15.30
2018-03-29T06:19:53.799Z,12.90
2018-03-29T06:22:21.387Z,13.00
2018-03-29T06:24:48.932Z,12.20
2018-03-29T06:27:16.471Z,13.63
2018-03-29T06:29:44.337Z,13.43
2018-03-29T06:32:11.979Z,11.30
2018-03-29T06:34:39.527Z,11.77
2018-03-29T06:37:07.104Z,12.43
2018-03-29T06:39:34.679Z,12.60
2018-03-29T06:42:02.217Z,17.23
2018-03-29T06:44:29.901Z,12.20
2018-03-29T06:46:57.574Z,11.63
2018-03-29T06:49:25.172Z,13.40
2018-03-29T06:51:52.787Z,12.30
2018-03-29T06:54:20.349Z,13.40
2018-03-29T06:56:48.782Z,12.00
2018-03-29T06:59:16.434Z,12.60
2018-03-29T07:01:44.367Z,11.70
2018-03-29T07:04:12.156Z,11.70
2018-03-29T07:06:39.783Z,11.60
2018-03-29T07:09:07.345Z,11.50
2018-03-29T07:11:34.905Z,11.40
2018-03-29T07:14:02.781Z,11.53
2018-03-29T07:16:30.380Z,16.93
2018-03-29T07:18:58.206Z,11.83
2018-03-29T07:21:25.799Z,11.43
2018-03-29T07:23:53.402Z,11.57
2018-03-29T07:26:20.949Z,10.83
2018-03-29T07:28:48.540Z,10.90
2018-03-29T07:31:16.099Z,10.77
2018-03-29T07:33:43.658Z,11.03
2018-03-29T07:36:11.960Z,10.50
2018-03-29T07:38:39.538Z,10.70
2018-03-29T07:41:07.092Z,11.23
2018-03-29T07:43:34.685Z,22.07
2018-03-29T07:46:02.251Z,10.83
2018-03-29T07:48:29.807Z,11.03
2018-03-29T07:50:57.848Z,11.80
2018-03-29T07:53:25.401Z,13.30
2018-03-29T07:55:52.961Z,13.60
2018-03-29T07:58:20.927Z,10.73
2018-03-29T08:00:48.514Z,10.40
2018-03-29T08:03:16.233Z,9.90
2018-03-29T08:05:44.160Z,10.43
2018-03-29T08:08:11.734Z,11.70
2018-03-29T08:10:39.256Z,10.77
2018-03-29T08:13:07.161Z,11.80
2018-03-29T08:15:34.923Z,10.67
2018-03-29T08:18:02.483Z,10.10
2018-03-29T08:20:31.009Z,14.40
2018-03-29T08:22:58.579Z,10.30
2018-03-29T08:25:26.442Z,15.10
2018-03-29T08:27:54.410Z,10.40
2018-03-29T08:30:22.039Z,10.30
2018-03-29T08:32:49.752Z,10.83
2018-03-29T08:35:17.608Z,10.90
2018-03-29T08:37:46.588Z,10.40
2018-03-29T08:40:15.694Z,9.80
2018-03-29T08:42:44.377Z,10.67
2018-03-29T08:45:11.980Z,11.60
2018-03-29T08:47:39.514Z,12.50
2018-03-29T08:50:07.081Z,10.20
2018-03-29T08:52:34.640Z,10.70
2018-03-29T08:55:02.210Z,10.57
2018-03-29T08:57:29.808Z,13.37
2018-03-29T08:59:57.374Z,10.60
2018-03-29T09:02:24.957Z,13.13
2018-03-29T09:04:52.564Z,11.73
2018-03-29T09:07:20.933Z,11.80
2018-03-29T09:09:55.816Z,13.83
2018-03-29T09:12:23.420Z,12.40
2018-03-29T09:14:51.094Z,15.30
2018-03-29T09:17:18.796Z,11.30
2018-03-29T09:19:46.349Z,11.27
2018-03-29T09:22:13.943Z,11.27
2018-03-29T09:24:41.538Z,12.63
2018-03-29T09:27:09.083Z,13.87
2018-03-29T09:29:36.745Z,13.23
2018-03-29T09:32:04.328Z,12.13
2018-03-29T09:34:32.275Z,13.93
2018-03-29T09:36:59.832Z,14.53
2018-03-29T09:39:27.441Z,14.63
2018-03-29T09:41:55.049Z,14.10
2018-03-29T09:44:22.594Z,13.40
2018-03-29T09:46:50.213Z,12.93
2018-03-29T09:49:17.772Z,15.93
2018-03-29T09:51:45.384Z,18.60
2018-03-29T09:54:13.387Z,16.23
2018-03-29T09:56:41.867Z,16.23
2018-03-29T09:59:09.453Z,15.67
2018-03-29T10:01:37.023Z,18.43
2018-03-29T10:04:10.066Z,18.37
2018-03-29T10:06:41.600Z,15.23
2018-03-29T10:09:09.186Z,22.60
2018-03-29T10:11:40.690Z,16.53
2018-03-29T10:14:08.443Z,18.20
2018-03-29T10:16:36.296Z,12.43
2018-03-29T10:19:04.582Z,12.27
2018-03-29T10:21:32.200Z,11.73
2018-03-29T10:24:00.120Z,11.47
2018-03-29T10:26:27.672Z,14.53
2018-03-29T10:28:55.250Z,12.83
2018-03-29T10:31:22.822Z,12.40
2018-03-29T10:33:50.653Z,16.60
2018-03-29T10:36:18.622Z,14.13
2018-03-29T10:38:46.215Z,12.80
2018-03-29T10:41:13.768Z,12.43
2018-03-29T10:43:41.974Z,11.17
2018-03-29T10:46:09.570Z,13.47
2018-03-29T10:48:37.158Z,13.97
2018-03-29T10:51:04.749Z,13.70
2018-03-29T10:53:32.362Z,11.10
2018-03-29T10:56:00.183Z,15.87
2018-03-29T10:58:28.089Z,13.00
2018-03-29T11:00:55.730Z,11.07
2018-03-29T11:03:23.418Z,12.93
2018-03-29T11:05:50.993Z,10.00
2018-03-29T11:08:19.042Z,10.20
2018-03-29T11:10:46.614Z,11.00
2018-03-29T11:13:14.574Z,11.33
2018-03-29T11:15:42.135Z,13.00
2018-03-29T11:18:09.832Z,11.60
2018-03-29T11:20:37.470Z,13.40
2018-03-29T11:23:05.546Z,10.30
2018-03-29T11:25:33.089Z,10.83
2018-03-29T11:28:00.672Z,11.10
2018-03-29T11:30:28.627Z,10.70
2018-03-29T11:32:56.196Z,12.93
2018-03-29T11:35:23.796Z,10.37
2018-03-29T11:37:51.381Z,14.97
2018-03-29T11:40:18.993Z,15.63
2018-03-29T11:42:46.602Z,11.80
2018-03-29T11:45:14.194Z,16.87
2018-03-29T11:47:41.768Z,14.33
2018-03-29T11:50:09.401Z,13.43
2018-03-29T11:52:38.966Z,18.90
2018-03-29T11:55:07.661Z,11.90
2018-03-29T11:57:35.443Z,18.13
2018-03-29T12:00:03.237Z,13.40
2018-03-29T12:02:31.813Z,14.07
2018-03-29T12:04:59.444Z,18.27
2018-03-29T12:07:27.042Z,13.97
2018-03-29T12:09:54.712Z,12.30
2018-03-29T12:12:22.316Z,11.57
2018-03-29T12:14:50.144Z,15.17
2018-03-29T12:17:17.699Z,14.07
2018-03-29T12:19:45.296Z,13.20
2018-03-29T12:22:14.667Z,14.00
2018-03-29T12:24:42.252Z,15.43
2018-03-29T12:27:09.884Z,12.47
2018-03-29T12:29:37.443Z,12.10
2018-03-29T12:32:05.319Z,13.37
2018-03-29T12:34:32.992Z,12.70
2018-03-29T12:37:00.849Z,13.33
2018-03-29T12:39:28.493Z,13.63
2018-03-29T12:41:56.902Z,16.30
2018-03-29T12:44:24.565Z,15.43
2018-03-29T12:46:52.147Z,12.43
2018-03-29T12:49:19.810Z,11.57
2018-03-29T12:51:47.516Z,11.33
2018-03-29T12:54:15.123Z,12.10
2018-03-29T12:56:55.272Z,14.10
2018-03-29T12:59:22.902Z,16.90
2018-03-29T13:01:50.505Z,13.00
2018-03-29T13:04:18.086Z,16.90
2018-03-29T13:06:45.671Z,16.43
2018-03-29T13:09:13.214Z,16.33
2018-03-29T13:11:40.807Z,17.23
2018-03-29T13:14:08.367Z,15.57
2018-03-29T13:16:36.087Z,18.00
2018-03-29T13:19:03.670Z,26.63
2018-03-29T13:21:31.369Z,17.50
2018-03-29T13:26:32.733Z,18.80
2018-03-29T13:29:00.292Z,22.40
2018-03-29T13:31:27.846Z,15.40
2018-03-29T13:33:55.484Z,17.80
2018-03-29T13:36:23.218Z,19.67
2018-03-29T13:38:50.805Z,21.00
2018-03-29T13:41:18.602Z,16.20
2018-03-29T13:43:46.160Z,19.67
2018-03-29T13:46:13.770Z,17.77
2018-03-29T13:48:41.409Z,14.87
2018-03-29T13:51:09.173Z,21.13
2018-03-29T13:53:37.046Z,22.23
2018-03-29T13:56:04.675Z,16.37
2018-03-29T13:58:32.471Z,19.50
2018-03-29T14:01:00.044Z,19.07
2018-03-29T14:03:27.648Z,19.93
2018-03-29T14:05:55.226Z,20.27
2018-03-29T14:08:22.851Z,24.80
2018-03-29T14:10:58.706Z,18.17
2018-03-29T14:13:26.265Z,23.23
2018-03-29T14:15:53.834Z,20.40
2018-03-29T14:18:21.443Z,19.97
2018-03-29T14:20:50.031Z,21.53
2018-03-29T14:23:17.591Z,28.93
2018-03-29T14:25:45.199Z,24.77
2018-03-29T14:28:12.808Z,23.30
2018-03-29T14:30:40.366Z,25.00
2018-03-29T14:33:07.986Z,24.27
2018-03-29T14:35:35.789Z,34.63
2018-03-29T14:38:03.347Z,21.80
2018-03-29T14:40:30.964Z,25.00
2018-03-29T14:42:58.563Z,21.80
2018-03-29T14:45:26.104Z,24.93
2018-03-29T14:47:53.993Z,24.00
2018-03-29T14:50:21.560Z,19.10
2018-03-29T14:52:49.351Z,23.33
2018-03-29T14:55:17.524Z,24.53
2018-03-29T14:57:45.152Z,23.50
2018-03-29T15:00:12.709Z,22.00
2018-03-29T15:02:40.600Z,23.60
2018-03-29T15:05:08.490Z,22.90
2018-03-29T15:07:36.040Z,23.80
2018-03-29T15:10:04.051Z,22.50
2018-03-29T15:12:31.905Z,24.23
2018-03-29T15:14:59.462Z,23.50
2018-03-29T15:17:27.056Z,25.50
2018-03-29T15:19:54.638Z,23.70
2018-03-29T15:22:22.199Z,24.77
2018-03-29T15:24:50.420Z,39.10
2018-03-29T15:27:18.055Z,26.20
2018-03-29T15:29:46.159Z,26.87
2018-03-29T15:32:13.727Z,30.30
2018-03-29T15:34:44.450Z,25.87
2018-03-29T15:37:13.468Z,30.27
2018-03-29T15:39:41.511Z,28.30
2018-03-29T15:42:09.132Z,27.93
2018-03-29T15:44:36.768Z,24.10
2018-03-29T15:47:04.355Z,23.40
2018-03-29T15:49:34.054Z,22.03
2018-03-29T15:52:01.985Z,28.53
2018-03-29T15:54:35.826Z,27.57
2018-03-29T15:57:04.008Z,29.33
2018-03-29T15:59:34.842Z,27.63
2018-03-29T16:02:02.489Z,26.50
2018-03-29T16:04:30.166Z,32.43
2018-03-29T16:06:57.792Z,37.53
2018-03-29T16:09:25.378Z,34.90
2018-03-29T16:11:52.990Z,28.80
2018-03-29T16:14:21.457Z,36.27
2018-03-29T16:16:49.048Z,36.10
2018-03-29T16:19:16.607Z,29.67
2018-03-29T16:21:44.198Z,29.47
2018-03-29T16:24:12.049Z,25.13
2018-03-29T16:26:39.641Z,27.47
2018-03-29T16:29:07.256Z,30.53
2018-03-29T16:31:34.813Z,27.03
2018-03-29T16:34:02.573Z,27.67
2018-03-29T16:36:30.157Z,26.73
2018-03-29T16:38:57.730Z,26.77
2018-03-29T16:41:25.359Z,28.30
2018-03-29T16:43:52.994Z,26.80
2018-03-29T16:46:20.588Z,28.60
2018-03-29T16:48:48.183Z,29.97
2018-03-29T16:51:16.547Z,30.23
2018-03-29T16:53:44.101Z,27.47
2018-03-29T16:56:11.641Z,25.70
2018-03-29T16:58:39.280Z,30.87
2018-03-29T17:01:06.914Z,31.00
2018-03-29T17:03:34.738Z,28.80
2018-03-29T17:06:02.313Z,28.53
2018-03-29T17:08:31.640Z,26.10
2018-03-29T17:10:59.251Z,36.03
2018-03-29T17:13:26.977Z,43.03
2018-03-29T17:15:54.528Z,29.63
2018-03-29T17:18:22.918Z,27.50
2018-03-29T17:20:50.544Z,25.63
2018-03-29T17:23:18.157Z,29.37
2018-03-29T17:25:45.738Z,23.27
2018-03-29T17:28:13.365Z,24.83
2018-03-29T17:30:40.932Z,24.30
2018-03-29T17:33:08.567Z,23.77
2018-03-29T17:35:36.428Z,26.83
2018-03-29T17:38:04.025Z,22.57
2018-03-29T17:40:31.723Z,25.60
2018-03-29T17:42:59.715Z,26.83
2018-03-29T17:45:27.316Z,21.37
2018-03-29T17:47:54.979Z,30.73
2018-03-29T17:50:22.559Z,31.60
2018-03-29T17:52:50.171Z,24.17
2018-03-29T17:55:18.412Z,24.53
2018-03-29T17:57:46.130Z,23.97
2018-03-29T18:00:13.697Z,25.77
2018-03-29T18:02:41.278Z,27.30
2018-03-29T18:05:09.202Z,27.47
2018-03-29T18:07:37.066Z,23.53
2018-03-29T18:10:04.778Z,26.93
2018-03-29T18:12:32.390Z,25.67
2018-03-29T18:15:02.288Z,24.87
2018-03-29T18:17:29.965Z,25.17
2018-03-29T18:19:57.644Z,29.80
2018-03-29T18:22:25.195Z,21.73
2018-03-29T18:24:52.750Z,20.73
2018-03-29T18:27:20.399Z,24.30
2018-03-29T18:29:49.693Z,20.07
2018-03-29T18:32:17.588Z,20.50
2018-03-29T18:34:45.195Z,21.90
2018-03-29T18:37:13.224Z,21.57
2018-03-29T18:39:40.870Z,24.40
2018-03-29T18:42:09.140Z,22.80
2018-03-29T18:44:36.830Z,20.67
2018-03-29T18:47:04.381Z,17.90
2018-03-29T18:49:31.956Z,22.10
2018-03-29T18:51:59.657Z,21.37
2018-03-29T18:54:27.208Z,14.00
2018-03-29T18:56:54.825Z,16.47
2018-03-29T18:59:22.424Z,18.10
2018-03-29T19:01:49.982Z,15.37
2018-03-29T19:04:17.647Z,17.73
2018-03-29T19:06:45.252Z,17.10
2018-03-29T19:09:12.812Z,19.13
2018-03-29T19:11:40.516Z,26.33
2018-03-29T19:14:08.247Z,29.57
2018-03-29T19:16:35.914Z,22.27
2018-03-29T19:19:03.494Z,18.77
2018-03-29T19:21:31.178Z,18.57
2018-03-29T19:23:58.737Z,24.20
2018-03-29T19:26:26.334Z,14.97
2018-03-29T19:28:53.894Z,18.80
2018-03-29T19:31:21.453Z,23.90
2018-03-29T19:33:49.051Z,18.00
2018-03-29T19:36:16.642Z,23.50
2018-03-29T19:38:44.197Z,18.53
2018-03-29T19:41:11.848Z,19.27
2018-03-29T19:43:41.165Z,20.57
2018-03-29T19:46:08.824Z,23.20
2018-03-29T19:48:36.482Z,22.10
2018-03-29T19:51:04.047Z,19.20
2018-03-29T19:53:31.610Z,17.10
2018-03-29T19:55:59.417Z,19.73
2018-03-29T19:58:26.966Z,21.93
2018-03-29T20:00:54.539Z,21.03
2018-03-29T20:03:22.168Z,19.43
2018-03-29T20:05:49.829Z,20.33
2018-03-29T20:08:17.968Z,20.30
2018-03-29T20:10:45.863Z,21.00
2018-03-29T20:13:13.420Z,23.63
2018-03-29T20:15:41.781Z,23.03
2018-03-29T20:18:09.411Z,23.90
2018-03-29T20:20:37.127Z,22.93
2018-03-29T20:23:04.708Z,22.27
2018-03-29T20:25:32.365Z,22.03
2018-03-29T20:27:59.931Z,21.27
2018-03-29T20:30:27.575Z,29.73
2018-03-29T20:32:55.258Z,25.43
2018-03-29T20:35:22.838Z,21.47
2018-03-29T20:37:50.526Z,31.83
2018-03-29T20:40:18.317Z,22.10
2018-03-29T20:42:45.925Z,26.63
2018-03-29T20:45:13.478Z,23.43
2018-03-29T20:50:14.735Z,23.77
2018-03-29T20:52:42.322Z,24.23
2018-03-29T20:55:09.891Z,20.40
2018-03-29T20:57:37.506Z,20.80
2018-03-29T21:00:05.080Z,20.03
2018-03-29T21:02:32.651Z,19.13
2018-03-29T21:05:00.202Z,24.70
2018-03-29T21:07:27.774Z,23.47
2018-03-29T21:09:55.563Z,17.80
2018-03-29T21:12:23.320Z,19.70
2018-03-29T21:14:50.932Z,29.33
2018-03-29T21:17:19.368Z,18.60
2018-03-29T21:19:46.960Z,21.83
2018-03-29T21:22:14.544Z,21.73
2018-03-29T21:24:42.125Z,18.10
2018-03-29T21:27:09.740Z,23.77
2018-03-29T21:29:37.627Z,19.57
2018-03-29T21:32:05.205Z,21.57
2018-03-29T21:34:32.946Z,21.47
2018-03-29T21:37:01.314Z,18.23
2018-03-29T21:39:29.208Z,20.47
2018-03-29T21:41:56.878Z,21.67
2018-03-29T21:44:24.552Z,18.73
2018-03-29T21:46:52.506Z,30.07
2018-03-29T21:49:20.152Z,21.37
2018-03-29T21:51:47.738Z,18.60
2018-03-29T21:54:15.323Z,20.10
2018-03-29T21:56:42.871Z,18.83
2018-03-29T21:59:10.713Z,19.17
2018-03-29T22:01:38.289Z,18.67
2018-03-29T22:04:05.995Z,20.80
2018-03-29T22:06:37.920Z,19.87
2018-03-29T22:09:06.493Z,25.10
2018-03-29T22:11:34.059Z,20.43
2018-03-29T22:14:01.891Z,21.20
2018-03-29T22:16:29.666Z,19.93
2018-03-29T22:18:57.238Z,18.30
2018-03-29T22:21:24.889Z,24.47
2018-03-29T22:23:52.448Z,25.03
2018-03-29T22:26:20.003Z,22.70
2018-03-29T22:28:47.636Z,20.83
2018-03-29T22:31:15.807Z,21.70
2018-03-29T22:33:43.404Z,20.57
2018-03-29T22:36:10.986Z,26.57
2018-03-29T22:38:38.558Z,23.53
2018-03-29T22:41:06.130Z,28.13
2018-03-29T22:43:33.820Z,21.63
2018-03-29T22:46:01.547Z,24.27
2018-03-29T22:48:29.143Z,18.90
2018-03-29T22:50:57.062Z,21.13
2018-03-29T22:53:24.932Z,22.10
2018-03-29T22:55:52.513Z,22.30
2018-03-29T22:58:20.125Z,22.83
2018-03-29T23:00:47.698Z,20.90
2018-03-29T23:03:15.256Z,21.80
2018-03-29T23:05:42.837Z,25.50
2018-03-29T23:08:10.702Z,24.60
2018-03-29T23:10:38.252Z,25.03
2018-03-29T23:13:05.818Z,22.93
2018-03-29T23:15:33.380Z,26.63
2018-03-29T23:18:01.004Z,24.80
2018-03-29T23:20:28.607Z,22.30
2018-03-29T23:22:56.155Z,23.17
2018-03-29T23:25:23.736Z,17.30
2018-03-29T23:27:51.384Z,22.60
2018-03-29T23:30:18.962Z,21.70
2018-03-29T23:32:47.163Z,22.80
2018-03-29T23:35:15.653Z,25.80
2018-03-29T23:37:43.247Z,24.07
2018-03-29T23:40:10.877Z,19.60
2018-03-29T23:42:38.461Z,23.77
2018-03-29T23:45:06.021Z,26.57
2018-03-29T23:47:33.587Z,21.43
2018-03-29T23:50:01.159Z,22.47
2018-03-29T23:52:28.746Z,24.83
2018-03-29T23:54:56.606Z,28.77
2018-03-29T23:57:24.202Z,20.70
2018-03-29T23:59:52.244Z,24.83
